createdAt,value
2019-03-19T00:00:55.045Z,42.70
2019-03-19T00:03:25.164Z,42.70
2019-03-19T00:05:55.355Z,42.70
2019-03-19T00:08:27.575Z,42.70
2019-03-19T00:10:57.914Z,42.60
2019-03-19T00:13:29.629Z,42.70
2019-03-19T00:16:00.197Z,42.70
2019-03-19T00:18:30.721Z,42.70
2019-03-19T00:21:01.501Z,42.60
2019-03-19T00:23:31.736Z,42.70
2019-03-19T00:26:01.839Z,42.60
2019-03-19T00:28:31.994Z,42.70
2019-03-19T00:31:03.293Z,42.70
2019-03-19T00:33:37.983Z,42.60
2019-03-19T00:36:08.105Z,42.60
2019-03-19T00:38:42.303Z,42.70
2019-03-19T00:41:12.426Z,42.60
2019-03-19T00:43:42.591Z,42.60
2019-03-19T00:46:12.725Z,42.70
2019-03-19T00:48:43.237Z,42.60
2019-03-19T00:51:13.371Z,42.60
2019-03-19T00:53:45.508Z,42.60
2019-03-19T00:56:15.634Z,42.60
2019-03-19T00:58:45.804Z,42.70
2019-03-19T01:01:17.132Z,42.70
2019-03-19T01:03:49.765Z,42.70
2019-03-19T01:06:19.960Z,42.70
2019-03-19T01:08:50.687Z,42.60
2019-03-19T01:11:20.901Z,42.60
2019-03-19T01:13:51.137Z,42.70
2019-03-19T01:16:23.630Z,42.70
2019-03-19T01:18:54.220Z,42.80
2019-03-19T01:21:26.884Z,42.70
2019-03-19T01:23:57.054Z,42.80
2019-03-19T01:26:27.154Z,42.70
2019-03-19T01:28:57.786Z,42.80
2019-03-19T01:31:28.152Z,42.80
2019-03-19T01:34:00.567Z,42.80
2019-03-19T01:36:31.548Z,42.80
2019-03-19T01:39:01.671Z,42.80
2019-03-19T01:41:35.530Z,42.80
2019-03-19T01:44:05.659Z,42.80
2019-03-19T01:46:35.859Z,42.90
2019-03-19T01:49:07.587Z,42.90
2019-03-19T01:51:38.912Z,42.80
2019-03-19T01:54:10.084Z,42.80
2019-03-19T01:56:40.367Z,42.80
2019-03-19T01:59:13.836Z,42.80
2019-03-19T02:01:43.997Z,42.80
2019-03-19T02:04:14.135Z,42.80
2019-03-19T02:06:45.164Z,42.80
2019-03-19T02:09:15.300Z,42.80
2019-03-19T02:11:45.448Z,42.80
2019-03-19T02:14:15.594Z,42.90
2019-03-19T02:16:45.855Z,42.80
2019-03-19T02:19:15.989Z,42.80
2019-03-19T02:21:46.126Z,42.80
2019-03-19T02:24:16.257Z,42.80
2019-03-19T02:26:46.432Z,42.80
2019-03-19T02:29:16.537Z,42.80
2019-03-19T02:31:46.672Z,42.80
2019-03-19T02:34:16.798Z,42.80
2019-03-19T02:36:46.950Z,42.90
2019-03-19T02:39:17.083Z,42.80
2019-03-19T02:41:47.230Z,42.80
2019-03-19T02:44:17.362Z,42.80
2019-03-19T02:46:47.496Z,42.80
2019-03-19T02:49:17.650Z,42.90
2019-03-19T02:51:47.768Z,42.80
2019-03-19T02:54:17.897Z,42.80
2019-03-19T02:56:49.115Z,42.90
2019-03-19T02:59:19.231Z,42.90
2019-03-19T03:01:49.373Z,42.90
2019-03-19T03:04:19.513Z,42.90
2019-03-19T03:06:49.717Z,42.80
2019-03-19T03:09:19.867Z,42.80
2019-03-19T03:11:49.993Z,42.90
2019-03-19T03:14:20.140Z,42.90
2019-03-19T03:16:50.276Z,42.90
2019-03-19T03:19:20.413Z,42.90
2019-03-19T03:21:50.556Z,42.90
2019-03-19T03:24:20.683Z,42.90
2019-03-19T03:26:50.860Z,42.90
2019-03-19T03:29:20.957Z,43.00
2019-03-19T03:31:57.010Z,42.90
2019-03-19T03:34:27.119Z,42.90
2019-03-19T03:36:57.271Z,42.90
2019-03-19T03:39:27.388Z,42.90
2019-03-19T03:41:57.599Z,43.00
2019-03-19T03:44:27.730Z,43.00
2019-03-19T03:46:57.865Z,42.90
2019-03-19T03:49:28.002Z,43.00
2019-03-19T03:51:58.135Z,43.00
2019-03-19T03:54:28.308Z,43.50
2019-03-19T03:57:02.483Z,43.10
2019-03-19T03:59:30.270Z,42.90
2019-03-19T04:02:00.410Z,43.00
2019-03-19T04:04:30.588Z,42.90
2019-03-19T04:07:00.721Z,43.00
2019-03-19T04:09:30.873Z,43.00
2019-03-19T04:12:01.019Z,43.00
2019-03-19T04:14:31.170Z,43.00
2019-03-19T04:17:01.302Z,43.00
2019-03-19T04:19:31.430Z,43.00
2019-03-19T04:22:01.583Z,43.00
2019-03-19T04:24:32.751Z,43.00
2019-03-19T04:27:15.167Z,43.00
2019-03-19T04:29:34.719Z,43.00
2019-03-19T04:32:04.881Z,43.00
2019-03-19T04:34:35.001Z,43.00
2019-03-19T04:37:05.132Z,43.00
2019-03-19T04:39:35.268Z,43.00
2019-03-19T04:42:05.411Z,43.00
2019-03-19T04:44:35.540Z,43.00
2019-03-19T04:47:05.685Z,43.10
2019-03-19T04:49:35.800Z,43.00
2019-03-19T04:52:05.961Z,43.10
2019-03-19T04:54:36.080Z,43.10
2019-03-19T04:57:06.222Z,43.10
2019-03-19T04:59:36.365Z,43.20
2019-03-19T05:02:06.566Z,43.20
2019-03-19T05:04:36.868Z,43.30
2019-03-19T05:07:07.004Z,43.20
2019-03-19T05:09:37.139Z,43.10
2019-03-19T05:12:07.285Z,43.20
2019-03-19T05:14:37.417Z,43.00
2019-03-19T05:17:07.543Z,43.00
2019-03-19T05:19:37.687Z,42.90
2019-03-19T05:22:07.920Z,42.90
2019-03-19T05:24:38.060Z,42.80
2019-03-19T05:27:08.206Z,42.90
2019-03-19T05:29:38.408Z,42.80
2019-03-19T05:32:08.540Z,42.80
2019-03-19T05:34:38.677Z,42.80
2019-03-19T05:37:08.799Z,42.70
2019-03-19T05:39:38.943Z,42.80
2019-03-19T05:42:09.098Z,42.70
2019-03-19T05:44:39.200Z,42.70
2019-03-19T05:47:09.334Z,42.70
2019-03-19T05:49:39.475Z,42.60
2019-03-19T05:52:09.599Z,42.60
2019-03-19T05:54:39.742Z,42.60
2019-03-19T05:57:09.970Z,42.70
2019-03-19T05:59:40.180Z,43.20
2019-03-19T06:02:10.309Z,42.70
2019-03-19T06:04:40.452Z,43.10
2019-03-19T06:07:10.647Z,42.60
2019-03-19T06:09:40.782Z,42.60
2019-03-19T06:12:10.920Z,43.30
2019-03-19T06:14:41.143Z,42.70
2019-03-19T06:17:11.280Z,42.70
2019-03-19T06:19:41.416Z,42.60
2019-03-19T06:22:11.539Z,43.00
2019-03-19T06:24:41.673Z,42.50
2019-03-19T06:27:11.867Z,42.60
2019-03-19T06:29:42.013Z,42.60
2019-03-19T06:32:12.150Z,42.50
2019-03-19T06:34:43.270Z,42.50
2019-03-19T06:37:13.389Z,42.40
2019-03-19T06:39:43.531Z,42.40
2019-03-19T06:42:13.652Z,42.40
2019-03-19T06:44:44.738Z,42.40
2019-03-19T06:47:14.874Z,42.40
2019-03-19T06:49:45.991Z,42.40
2019-03-19T06:52:16.115Z,42.60
2019-03-19T06:54:46.247Z,42.60
2019-03-19T06:57:17.363Z,42.50
2019-03-19T06:59:47.686Z,42.50
2019-03-19T07:02:18.801Z,42.50
2019-03-19T07:04:48.971Z,42.40
2019-03-19T07:07:19.092Z,42.40
2019-03-19T07:09:49.240Z,42.30
2019-03-19T07:12:19.380Z,42.50
2019-03-19T07:14:49.513Z,43.10
2019-03-19T07:17:19.637Z,42.80
2019-03-19T07:19:49.794Z,42.80
2019-03-19T07:22:19.921Z,42.80
2019-03-19T07:24:50.144Z,42.80
2019-03-19T07:27:20.275Z,42.90
2019-03-19T07:29:50.414Z,42.90
2019-03-19T07:32:20.543Z,43.50
2019-03-19T07:34:50.681Z,43.00
2019-03-19T07:37:20.811Z,43.10
2019-03-19T07:39:50.957Z,43.00
2019-03-19T07:42:21.091Z,42.90
2019-03-19T07:44:51.218Z,42.90
2019-03-19T07:47:21.373Z,42.90
2019-03-19T07:49:51.506Z,42.80
2019-03-19T07:52:21.627Z,42.60
2019-03-19T07:54:51.762Z,42.20
2019-03-19T07:57:21.972Z,41.70
2019-03-19T07:59:53.150Z,41.60
2019-03-19T08:02:24.875Z,41.20
2019-03-19T08:04:55.002Z,40.70
2019-03-19T08:07:25.159Z,40.40
2019-03-19T08:09:55.302Z,40.40
2019-03-19T08:12:25.438Z,40.50
2019-03-19T08:14:58.257Z,40.60
2019-03-19T08:17:28.407Z,40.80
2019-03-19T08:19:58.526Z,40.90
2019-03-19T08:22:28.675Z,40.90
2019-03-19T08:24:58.838Z,41.10
2019-03-19T08:27:28.970Z,41.10
2019-03-19T08:29:59.107Z,41.10
2019-03-19T08:32:29.232Z,41.20
2019-03-19T08:34:59.390Z,41.10
2019-03-19T08:37:29.524Z,41.20
2019-03-19T08:39:59.646Z,41.10
2019-03-19T08:42:29.786Z,41.20
2019-03-19T08:44:59.911Z,41.20
2019-03-19T08:47:30.050Z,41.20
2019-03-19T08:50:00.189Z,42.10
2019-03-19T08:52:30.308Z,41.70
2019-03-19T08:55:00.438Z,41.60
2019-03-19T08:57:31.536Z,41.60
2019-03-19T09:00:04.600Z,41.70
2019-03-19T09:02:35.570Z,41.70
2019-03-19T09:05:08.906Z,41.70
2019-03-19T09:07:40.022Z,41.80
2019-03-19T09:10:15.243Z,41.80
2019-03-19T09:12:47.984Z,41.90
2019-03-19T09:15:29.219Z,42.00
2019-03-19T09:17:59.353Z,42.00
2019-03-19T09:20:29.473Z,41.90
2019-03-19T09:22:59.612Z,42.00
2019-03-19T09:25:29.742Z,42.00
2019-03-19T09:27:59.877Z,42.10
2019-03-19T09:30:30.169Z,42.10
2019-03-19T09:33:00.299Z,42.10
2019-03-19T09:35:30.437Z,42.10
2019-03-19T09:38:00.579Z,42.10
2019-03-19T09:40:30.732Z,42.10
2019-03-19T09:43:00.866Z,42.10
2019-03-19T09:45:30.997Z,42.20
2019-03-19T09:48:01.199Z,42.20
2019-03-19T09:50:31.320Z,42.20
2019-03-19T09:53:06.924Z,42.20
2019-03-19T09:55:37.153Z,42.30
2019-03-19T09:58:07.334Z,42.30
2019-03-19T10:00:37.479Z,42.30
2019-03-19T10:03:07.615Z,42.20
2019-03-19T10:05:37.739Z,42.30
2019-03-19T10:08:08.005Z,42.40
2019-03-19T10:10:38.155Z,42.40
2019-03-19T10:13:08.334Z,42.40
2019-03-19T10:15:38.507Z,42.50
2019-03-19T10:18:08.615Z,42.50
2019-03-19T10:20:38.745Z,42.40
2019-03-19T10:23:08.887Z,42.60
2019-03-19T10:25:39.081Z,42.60
2019-03-19T10:28:09.383Z,42.60
2019-03-19T10:30:39.518Z,42.50
2019-03-19T10:33:09.663Z,42.40
2019-03-19T10:35:39.802Z,42.40
2019-03-19T10:38:09.946Z,42.20
2019-03-19T10:40:40.084Z,42.20
2019-03-19T10:43:10.378Z,42.20
2019-03-19T10:45:40.510Z,42.20
2019-03-19T10:48:10.661Z,42.20
2019-03-19T10:50:40.779Z,42.10
2019-03-19T10:53:10.987Z,42.00
2019-03-19T10:55:41.185Z,41.90
2019-03-19T10:58:11.564Z,41.70
2019-03-19T11:00:43.609Z,41.70
2019-03-19T11:03:14.105Z,41.70
2019-03-19T11:05:47.616Z,41.60
2019-03-19T11:08:17.749Z,41.60
2019-03-19T11:10:47.880Z,41.60
2019-03-19T11:13:18.021Z,41.70
2019-03-19T11:15:48.157Z,41.90
2019-03-19T11:18:18.310Z,42.00
2019-03-19T11:20:48.439Z,42.10
2019-03-19T11:23:18.601Z,42.20
2019-03-19T11:25:54.513Z,42.20
2019-03-19T11:28:20.573Z,42.10
2019-03-19T11:30:50.799Z,42.00
2019-03-19T11:33:20.942Z,42.10
2019-03-19T11:35:51.064Z,42.00
2019-03-19T11:38:21.239Z,42.10
2019-03-19T11:40:51.349Z,42.10
2019-03-19T11:43:21.494Z,42.10
2019-03-19T11:45:51.708Z,42.10
2019-03-19T11:48:21.844Z,42.20
2019-03-19T11:50:52.041Z,42.20
2019-03-19T11:53:22.148Z,42.00
2019-03-19T11:55:52.273Z,42.10
2019-03-19T11:58:22.408Z,42.10
2019-03-19T12:01:00.223Z,42.00
2019-03-19T12:03:30.375Z,42.10
2019-03-19T12:06:00.496Z,41.80
2019-03-19T12:08:30.629Z,41.80
2019-03-19T12:11:00.768Z,41.60
2019-03-19T12:13:30.907Z,41.60
2019-03-19T12:16:01.256Z,41.70
2019-03-19T12:18:31.396Z,38.90
2019-03-19T12:21:01.528Z,35.80
2019-03-19T12:23:31.660Z,35.70
2019-03-19T12:26:02.877Z,35.30
2019-03-19T12:28:39.710Z,36.00
2019-03-19T12:31:04.976Z,34.50
2019-03-19T12:33:40.766Z,34.00
2019-03-19T12:36:07.915Z,33.60
2019-03-19T12:38:38.065Z,33.30
2019-03-19T12:41:08.188Z,32.90
2019-03-19T12:43:38.396Z,32.70
2019-03-19T12:46:08.521Z,33.00
2019-03-19T12:48:38.658Z,33.40
2019-03-19T12:51:08.812Z,33.30
2019-03-19T12:53:38.941Z,33.20
2019-03-19T12:56:09.077Z,32.90
2019-03-19T12:58:39.204Z,33.40
2019-03-19T13:01:09.433Z,33.50
2019-03-19T13:03:39.657Z,33.00
2019-03-19T13:06:09.984Z,32.70
2019-03-19T13:08:40.207Z,32.70
2019-03-19T13:11:13.371Z,33.90
2019-03-19T13:13:43.516Z,33.60
2019-03-19T13:16:13.651Z,34.10
2019-03-19T13:18:43.779Z,35.00
2019-03-19T13:21:13.914Z,35.90
2019-03-19T13:23:44.049Z,36.70
2019-03-19T13:26:14.169Z,37.30
2019-03-19T13:28:44.311Z,37.60
2019-03-19T13:31:14.435Z,37.80
2019-03-19T13:33:44.577Z,37.90
2019-03-19T13:36:14.723Z,38.10
2019-03-19T13:38:44.851Z,38.20
2019-03-19T13:41:14.968Z,38.20
2019-03-19T13:43:45.184Z,38.20
2019-03-19T13:46:15.320Z,38.30
2019-03-19T13:48:45.459Z,38.60
2019-03-19T13:51:15.611Z,38.70
2019-03-19T13:53:45.768Z,38.70
2019-03-19T13:56:17.861Z,37.20
2019-03-19T13:58:48.887Z,34.80
2019-03-19T14:01:19.018Z,34.00
2019-03-19T14:03:49.163Z,33.00
2019-03-19T14:06:19.297Z,32.10
2019-03-19T14:08:49.479Z,31.70
2019-03-19T14:11:20.624Z,31.70
2019-03-19T14:13:50.768Z,31.40
2019-03-19T14:16:20.939Z,30.90
2019-03-19T14:18:51.069Z,30.70
2019-03-19T14:21:21.214Z,30.10
2019-03-19T14:23:51.358Z,30.40
2019-03-19T14:26:22.468Z,30.40
2019-03-19T14:28:52.600Z,30.10
2019-03-19T14:31:22.756Z,29.90
2019-03-19T14:33:52.884Z,29.50
2019-03-19T14:36:23.997Z,29.30
2019-03-19T14:38:55.197Z,29.80
2019-03-19T14:41:25.338Z,29.60
2019-03-19T14:43:55.457Z,29.60
2019-03-19T14:46:25.597Z,29.20
2019-03-19T14:48:55.736Z,29.90
2019-03-19T14:51:25.893Z,29.80
2019-03-19T14:53:56.021Z,29.50
2019-03-19T14:56:26.164Z,29.50
2019-03-19T14:58:56.283Z,29.60
2019-03-19T15:01:26.417Z,29.60
2019-03-19T15:03:56.558Z,29.00
2019-03-19T15:06:26.706Z,29.40
2019-03-19T15:08:57.800Z,29.30
2019-03-19T15:11:27.940Z,29.10
2019-03-19T15:13:58.083Z,29.00
2019-03-19T15:16:28.222Z,28.90
2019-03-19T15:18:58.352Z,28.90
2019-03-19T15:21:28.492Z,28.70
2019-03-19T15:23:58.656Z,28.90
2019-03-19T15:26:28.972Z,28.80
2019-03-19T15:28:59.155Z,29.00
2019-03-19T15:31:30.136Z,29.10
2019-03-19T15:34:03.267Z,29.10
2019-03-19T15:36:32.330Z,28.90
2019-03-19T15:39:02.381Z,29.00
2019-03-19T15:41:34.156Z,29.00
2019-03-19T15:44:04.277Z,29.10
2019-03-19T15:46:34.418Z,28.60
2019-03-19T15:49:04.553Z,28.80
2019-03-19T15:51:34.713Z,28.90
2019-03-19T15:54:04.845Z,29.00
2019-03-19T15:56:34.986Z,28.70
2019-03-19T15:59:05.108Z,28.70
2019-03-19T16:01:40.284Z,28.80
2019-03-19T16:04:07.069Z,28.80
2019-03-19T16:06:37.319Z,28.60
2019-03-19T16:09:08.928Z,29.30
2019-03-19T16:11:39.085Z,29.80
2019-03-19T16:14:10.302Z,30.20
2019-03-19T16:16:40.512Z,31.30
2019-03-19T16:19:10.648Z,32.10
2019-03-19T16:21:40.794Z,33.00
2019-03-19T16:24:10.925Z,33.50
2019-03-19T16:26:41.069Z,33.90
2019-03-19T16:29:11.212Z,34.30
2019-03-19T16:31:50.653Z,34.60
2019-03-19T16:34:13.178Z,34.90
2019-03-19T16:36:43.324Z,34.70
2019-03-19T16:39:13.448Z,34.70
2019-03-19T16:41:43.888Z,35.40
2019-03-19T16:44:13.989Z,35.10
2019-03-19T16:46:48.317Z,35.20
2019-03-19T16:49:18.461Z,35.30
2019-03-19T16:51:48.603Z,35.50
2019-03-19T16:54:18.728Z,35.50
2019-03-19T16:56:48.873Z,35.70
2019-03-19T16:59:19.011Z,35.80
2019-03-19T17:01:49.160Z,35.90
2019-03-19T17:04:19.291Z,36.00
2019-03-19T17:06:49.500Z,36.20
2019-03-19T17:09:20.041Z,36.30
2019-03-19T17:11:50.857Z,36.70
2019-03-19T17:14:21.000Z,36.50
2019-03-19T17:16:51.369Z,36.60
2019-03-19T17:19:21.564Z,36.80
2019-03-19T17:21:51.667Z,36.60
2019-03-19T17:24:21.798Z,36.80
2019-03-19T17:26:52.996Z,37.20
2019-03-19T17:29:23.194Z,37.30
2019-03-19T17:31:53.454Z,37.30
2019-03-19T17:34:24.374Z,37.40
2019-03-19T17:36:54.657Z,37.50
2019-03-19T17:39:24.785Z,37.60
2019-03-19T17:41:54.932Z,37.70
2019-03-19T17:44:25.060Z,37.80
2019-03-19T17:46:55.197Z,37.90
2019-03-19T17:49:25.323Z,38.40
2019-03-19T17:51:55.477Z,38.10
2019-03-19T17:54:25.589Z,38.10
2019-03-19T17:56:55.726Z,38.20
2019-03-19T17:59:25.897Z,38.30
2019-03-19T18:01:57.103Z,38.30
2019-03-19T18:04:28.210Z,38.40
2019-03-19T18:06:58.358Z,38.50
2019-03-19T18:09:28.486Z,38.70
2019-03-19T18:11:58.718Z,38.80
2019-03-19T18:14:28.886Z,38.80
2019-03-19T18:16:59.941Z,38.80
2019-03-19T18:19:30.114Z,39.00
2019-03-19T18:22:00.254Z,39.00
2019-03-19T18:24:30.408Z,39.10
2019-03-19T18:27:01.606Z,39.10
2019-03-19T18:29:31.728Z,39.20
2019-03-19T18:32:01.885Z,39.30
2019-03-19T18:34:33.631Z,39.30
2019-03-19T18:37:03.944Z,39.40
2019-03-19T18:39:35.613Z,39.50
2019-03-19T18:42:05.944Z,39.40
2019-03-19T18:44:36.070Z,39.50
2019-03-19T18:47:06.230Z,39.60
2019-03-19T18:49:36.365Z,39.60
2019-03-19T18:52:06.508Z,39.70
2019-03-19T18:54:36.685Z,39.70
2019-03-19T18:57:06.775Z,39.90
2019-03-19T18:59:36.999Z,39.90
2019-03-19T19:02:07.126Z,40.50
2019-03-19T19:04:38.323Z,41.00
2019-03-19T19:07:08.583Z,40.60
2019-03-19T19:09:38.756Z,40.70
2019-03-19T19:12:08.982Z,40.80
2019-03-19T19:14:41.896Z,40.80
2019-03-19T19:17:13.324Z,40.90
2019-03-19T19:19:43.726Z,40.90
2019-03-19T19:22:13.899Z,40.90
2019-03-19T19:24:44.080Z,40.90
2019-03-19T19:27:15.380Z,41.00
2019-03-19T19:29:45.498Z,41.00
2019-03-19T19:32:15.649Z,41.10
2019-03-19T19:34:45.778Z,41.00
2019-03-19T19:37:15.920Z,41.00
2019-03-19T19:39:46.071Z,41.00
2019-03-19T19:42:16.294Z,41.00
2019-03-19T19:44:47.559Z,41.00
2019-03-19T19:47:17.817Z,41.10
2019-03-19T19:49:48.145Z,41.10
2019-03-19T19:52:18.375Z,41.10
2019-03-19T19:54:48.597Z,41.10
2019-03-19T19:57:18.821Z,41.10
2019-03-19T19:59:48.970Z,41.20
2019-03-19T20:02:19.148Z,41.20
2019-03-19T20:04:49.280Z,41.20
2019-03-19T20:07:19.406Z,41.20
2019-03-19T20:09:49.579Z,41.20
2019-03-19T20:12:19.720Z,41.30
2019-03-19T20:14:49.874Z,41.20
2019-03-19T20:17:20.020Z,41.20
2019-03-19T20:19:50.184Z,41.20
2019-03-19T20:22:20.316Z,41.30
2019-03-19T20:24:50.466Z,41.20
2019-03-19T20:27:20.669Z,41.20
2019-03-19T20:29:50.880Z,41.30
2019-03-19T20:32:21.026Z,41.30
2019-03-19T20:34:51.207Z,41.30
2019-03-19T20:37:21.473Z,41.30
2019-03-19T20:39:51.749Z,41.30
2019-03-19T20:42:22.046Z,41.40
2019-03-19T20:44:52.211Z,41.30
2019-03-19T20:47:22.338Z,41.30
2019-03-19T20:49:52.478Z,41.40
2019-03-19T20:52:22.616Z,41.40
2019-03-19T20:54:52.756Z,41.40
2019-03-19T20:57:22.954Z,41.30
2019-03-19T20:59:53.095Z,41.40
2019-03-19T21:02:26.598Z,41.40
2019-03-19T21:04:56.820Z,41.50
2019-03-19T21:07:26.942Z,41.50
2019-03-19T21:09:57.080Z,41.40
2019-03-19T21:12:27.220Z,41.50
2019-03-19T21:14:57.395Z,41.50
2019-03-19T21:17:27.525Z,41.50
2019-03-19T21:19:57.825Z,41.50
2019-03-19T21:22:27.984Z,41.50
2019-03-19T21:24:58.097Z,41.60
2019-03-19T21:27:28.229Z,41.50
2019-03-19T21:29:58.379Z,41.50
2019-03-19T21:32:28.572Z,41.60
2019-03-19T21:34:58.725Z,41.60
2019-03-19T21:37:28.855Z,41.60
2019-03-19T21:39:58.988Z,41.60
2019-03-19T21:42:29.119Z,41.60
2019-03-19T21:44:59.272Z,41.70
2019-03-19T21:47:29.447Z,41.60
2019-03-19T21:49:59.592Z,41.90
2019-03-19T21:52:29.837Z,41.70
2019-03-19T21:54:59.987Z,41.70
2019-03-19T21:57:31.714Z,41.80
2019-03-19T22:00:02.025Z,41.70
2019-03-19T22:02:33.779Z,41.80
2019-03-19T22:05:04.303Z,41.80
2019-03-19T22:07:34.440Z,41.90
2019-03-19T22:10:12.394Z,42.10
2019-03-19T22:12:42.515Z,41.90
2019-03-19T22:15:18.740Z,41.80
2019-03-19T22:17:49.742Z,41.80
2019-03-19T22:20:19.949Z,41.90
2019-03-19T22:22:50.023Z,41.90
2019-03-19T22:25:20.243Z,41.90
2019-03-19T22:27:50.392Z,42.00
2019-03-19T22:30:21.643Z,42.00
2019-03-19T22:32:51.783Z,42.00
2019-03-19T22:35:21.940Z,41.90
2019-03-19T22:37:52.064Z,42.60
2019-03-19T22:40:22.203Z,41.90
2019-03-19T22:42:52.342Z,42.00
2019-03-19T22:45:22.611Z,42.00
2019-03-19T22:47:52.793Z,42.00
2019-03-19T22:50:24.024Z,42.00
2019-03-19T22:52:54.173Z,41.90
2019-03-19T22:55:28.912Z,41.90
2019-03-19T22:57:56.465Z,41.90
2019-03-19T23:00:37.147Z,41.90
2019-03-19T23:03:09.190Z,41.90
2019-03-19T23:05:41.149Z,41.90
2019-03-19T23:08:11.286Z,41.80
2019-03-19T23:10:41.530Z,41.90
2019-03-19T23:13:12.092Z,41.80
2019-03-19T23:15:42.346Z,41.80
2019-03-19T23:18:12.545Z,41.90
2019-03-19T23:20:42.686Z,41.80
2019-03-19T23:23:20.204Z,41.80
2019-03-19T23:25:50.408Z,41.90
2019-03-19T23:28:20.586Z,41.80
2019-03-19T23:30:50.724Z,41.90
2019-03-19T23:33:20.881Z,41.80
2019-03-19T23:35:51.023Z,41.80
2019-03-19T23:38:21.153Z,41.80
2019-03-19T23:40:51.303Z,41.90
2019-03-19T23:43:21.549Z,41.80
2019-03-19T23:45:51.672Z,41.90
2019-03-19T23:48:21.815Z,41.80
2019-03-19T23:50:51.965Z,41.80
2019-03-19T23:53:22.109Z,41.70
2019-03-19T23:55:52.269Z,41.80
2019-03-19T23:58:22.413Z,41.70
